Time;durP1;ratioP1;P1;durP2;ratioP2;P2;SDS_P1;SDS_P2;PMS_P1;PMS_P2;Temp;Humidity;BMP_temperature;BMP_pressure;BME280_temperature;BME280_humidity;BME280_pressure;Samples;Min_cycle;Max_cycle;Signal;HPM_P1;HPM_P2
2022/01/03 00:00:15;;;;;;;6.45;3.83;;;;;;;9.71;68.27;97580.30;1720992;82;21398;-56
2022/01/03 00:02:44;;;;;;;7.12;3.60;;;;;;;9.67;68.46;97571.70;1735927;81;20973;-57
2022/01/03 00:05:11;;;;;;;6.58;4.12;;;;;;;9.69;68.51;97577.63;1735636;82;21012;-56
2022/01/03 00:07:45;;;;;;;5.55;3.55;;;;;;;9.55;68.96;97573.40;1797809;79;23263;-57
2022/01/03 00:10:12;;;;;;;5.70;3.70;;;;;;;9.55;68.96;97573.40;1755613;81;20874;-57
2022/01/03 00:12:38;;;;;;;7.47;3.58;;;;;;;9.48;69.27;97568.31;1751721;82;22210;-57
2022/01/03 00:15:08;;;;;;;6.83;4.17;;;;;;;9.45;69.03;97570.23;1751861;81;20909;-57
2022/01/03 00:17:34;;;;;;;6.72;5.20;;;;;;;9.45;69.03;97570.23;1751292;81;20992;-57
2022/01/03 00:20:00;;;;;;;7.28;3.27;;;;;;;9.40;69.21;97566.76;1752034;82;21464;-57
2022/01/03 00:22:26;;;;;;;6.08;3.92;;;;;;;9.38;69.00;97555.42;1747453;81;20881;-57
2022/01/03 00:25:03;;;;;;;11.05;5.47;;;;;;;9.35;69.45;97555.45;1752330;81;21800;-57
2022/01/03 00:27:42;;;;;;;6.28;3.75;;;;;;;9.35;69.40;97559.51;1736383;81;21040;-57
2022/01/03 00:30:09;;;;;;;7.25;4.60;;;;;;;9.28;69.44;97544.95;1722149;83;21062;-57
2022/01/03 00:32:37;;;;;;;34.85;4.70;;;;;;;9.27;69.75;97552.80;1745022;82;21444;-57
2022/01/03 00:35:05;;;;;;;6.37;4.22;;;;;;;9.22;69.98;97548.78;1752128;81;20968;-57
2022/01/03 00:37:31;;;;;;;7.15;5.22;;;;;;;9.16;70.25;97542.36;1751674;82;22180;-57
2022/01/03 00:39:58;;;;;;;8.45;4.58;;;;;;;9.13;70.31;97538.30;1751947;81;21057;-57
2022/01/03 00:42:24;;;;;;;5.70;3.72;;;;;;;9.13;70.45;97550.47;1748469;81;21004;-58
2022/01/03 00:44:52;;;;;;;8.05;3.85;;;;;;;9.12;70.76;97549.41;1751996;81;21003;-57
2022/01/03 00:47:18;;;;;;;6.60;4.33;;;;;;;9.10;70.87;97561.86;1741972;80;21002;-57
2022/01/03 00:49:44;;;;;;;7.65;4.15;;;;;;;9.08;70.98;97559.98;1785989;80;21552;-58
2022/01/03 00:52:10;;;;;;;8.55;4.92;;;;;;;9.08;70.89;97560.53;1691515;83;21496;-57
2022/01/03 00:54:36;;;;;;;6.72;4.05;;;;;;;9.11;70.82;97540.48;1698937;84;21492;-58
2022/01/03 00:57:05;;;;;;;9.85;4.08;;;;;;;9.11;70.82;97540.48;1698885;84;20841;-57
2022/01/03 00:59:45;;;;;;;7.72;4.08;;;;;;;9.12;70.98;97552.11;1757413;81;21023;-57
2022/01/03 01:02:11;;;;;;;6.35;3.90;;;;;;;9.17;70.56;97550.19;1755667;81;21467;-57
2022/01/03 01:04:36;;;;;;;9.05;4.67;;;;;;;9.16;70.62;97560.73;1742704;81;21559;-57
2022/01/03 01:07:05;;;;;;;7.58;4.50;;;;;;;9.15;70.97;97542.10;1720016;81;20883;-57
2022/01/03 01:09:31;;;;;;;7.95;3.87;;;;;;;9.17;71.17;97540.72;1726396;80;20992;-57
2022/01/03 01:11:58;;;;;;;7.17;3.80;;;;;;;9.18;71.28;97542.34;1737782;82;21059;-57
2022/01/03 01:14:25;;;;;;;7.67;4.35;;;;;;;9.16;71.29;97551.28;1743753;82;21238;-57
2022/01/03 01:16:51;;;;;;;9.88;4.30;;;;;;;9.09;71.27;97544.03;1730113;82;21006;-57
2022/01/03 01:19:18;;;;;;;6.90;4.25;;;;;;;9.07;71.24;97550.27;1718757;83;21022;-57
2022/01/03 01:21:44;;;;;;;6.85;4.60;;;;;;;9.03;71.25;97544.59;1718567;82;20959;-57
2022/01/03 01:24:10;;;;;;;8.15;4.00;;;;;;;8.98;71.45;97551.95;1719112;83;21573;-57
2022/01/03 01:29:21;;;;;;;5.33;3.70;;;;;;;8.84;71.63;97543.65;1743561;82;21429;-57
2022/01/03 01:31:50;;;;;;;5.97;4.05;;;;;;;8.84;71.63;97543.65;1740043;82;20901;-57
2022/01/03 01:34:22;;;;;;;8.60;4.20;;;;;;;8.81;71.63;97542.06;1743332;82;21025;-57
2022/01/03 01:36:51;;;;;;;6.22;3.62;;;;;;;8.80;71.70;97537.17;1743231;82;21020;-57
2022/01/03 01:39:17;;;;;;;;;;;;;;;8.81;72.01;97528.55;1746164;82;22201;-57
2022/01/03 01:41:44;;;;;;;11.22;5.72;;;;;;;8.81;72.08;97519.09;1727688;82;20613;-57
2022/01/03 01:44:10;;;;;;;6.03;3.83;;;;;;;8.79;72.10;97518.55;1718750;83;21007;-57
2022/01/03 01:46:46;;;;;;;6.90;5.92;;;;;;;8.75;72.10;97515.06;1718440;82;20932;-58
2022/01/03 01:49:20;;;;;;;8.70;5.00;;;;;;;8.74;71.93;97511.30;1768725;80;20951;-57
2022/01/03 01:51:48;;;;;;;14.83;4.72;;;;;;;8.72;72.06;97502.13;1686371;83;21174;-57
2022/01/03 01:54:17;;;;;;;7.90;4.03;;;;;;;8.72;72.06;97504.83;1681232;85;20978;-57
2022/01/03 01:57:08;;;;;;;7.10;3.90;;;;;;;8.75;71.82;97506.96;1682813;85;20966;-57
2022/01/03 02:00:04;;;;;;;6.62;3.80;;;;;;;8.76;72.05;97509.92;1743365;82;21175;-57
2022/01/03 02:02:37;;;;;;;7.80;4.17;;;;;;;8.77;71.83;97498.58;1743248;82;21004;-57
2022/01/03 02:05:28;;;;;;;7.87;3.65;;;;;;;8.80;71.92;97493.95;1743576;82;21070;-57
2022/01/03 02:08:16;;;;;;;7.65;3.08;;;;;;;8.85;72.03;97503.38;1743068;82;21023;-57
2022/01/03 02:11:07;;;;;;;8.55;4.08;;;;;;;8.88;72.20;97503.36;1711431;82;21020;-57
2022/01/03 02:13:33;;;;;;;6.17;3.90;;;;;;;8.92;72.05;97493.61;1718486;83;20995;-58
2022/01/03 02:16:03;;;;;;;11.40;5.55;;;;;;;8.95;71.83;97497.90;1718403;82;20970;-58
2022/01/03 02:18:27;;;;;;;6.78;4.05;;;;;;;8.99;71.53;97484.11;1717607;83;22260;-58
2022/01/03 02:20:53;;;;;;;7.47;3.87;;;;;;;9.03;71.17;97496.50;1718404;82;20939;-58
2022/01/03 02:23:19;;;;;;;7.37;4.90;;;;;;;9.03;71.31;97488.39;1742737;82;21056;-58
2022/01/03 02:25:45;;;;;;;10.23;4.55;;;;;;;9.04;70.96;97473.23;1741148;82;21373;-58
2022/01/03 02:28:11;;;;;;;7.87;3.95;;;;;;;9.04;71.02;97467.83;1718517;82;20879;-58
2022/01/03 02:30:37;;;;;;;5.65;3.37;;;;;;;9.07;70.78;97473.78;1719686;82;21473;-58
2022/01/03 02:33:04;;;;;;;7.22;3.80;;;;;;;9.05;70.84;97467.28;1743182;82;21386;-58
2022/01/03 02:35:35;;;;;;;7.42;3.55;;;;;;;9.04;70.71;97459.72;1743337;82;20993;-58
2022/01/03 02:38:01;;;;;;;8.18;3.67;;;;;;;9.03;70.92;97462.17;1721780;82;21435;-58
2022/01/03 02:40:27;;;;;;;6.62;3.67;;;;;;;9.05;70.91;97445.12;1721493;82;20868;-58
2022/01/03 02:42:53;;;;;;;6.97;3.95;;;;;;;9.04;70.83;97434.59;1723362;82;22112;-58
2022/01/03 02:45:22;;;;;;;5.85;3.60;;;;;;;9.01;70.73;97445.98;1718247;82;21045;-58
2022/01/03 02:47:51;;;;;;;5.97;3.67;;;;;;;8.99;70.77;97443.57;1729576;82;21004;-58
2022/01/03 02:50:18;;;;;;;8.10;3.85;;;;;;;8.93;70.80;97435.78;1712969;82;22733;-59
2022/01/03 02:52:45;;;;;;;4.90;3.37;;;;;;;8.91;70.91;97441.47;1712698;82;21435;-59
2022/01/03 02:55:11;;;;;;;6.28;3.42;;;;;;;8.88;70.87;97438.52;1718664;82;21470;-58
2022/01/03 02:57:44;;;;;;;5.45;3.12;;;;;;;8.84;71.09;97440.98;1718404;82;20917;-59
2022/01/03 03:00:17;;;;;;;8.05;3.30;;;;;;;8.81;71.20;97446.96;1718530;83;21388;-58
2022/01/03 03:02:43;;;;;;;5.05;3.08;;;;;;;8.83;71.23;97438.02;1718319;82;21455;-58
2022/01/03 03:05:09;;;;;;;7.45;4.70;;;;;;;8.87;71.45;97432.84;1718671;83;20876;-58
2022/01/03 03:07:36;;;;;;;7.00;3.90;;;;;;;8.91;71.54;97437.97;1715476;82;21389;-58
2022/01/03 03:10:13;;;;;;;12.10;6.45;;;;;;;8.95;71.37;97428.19;1710158;82;21421;-58
2022/01/03 03:12:39;;;;;;;9.98;4.92;;;;;;;8.97;71.08;97416.03;1726488;82;20988;-58
2022/01/03 03:15:06;;;;;;;10.25;5.15;;;;;;;8.98;70.89;97413.59;1738095;82;20945;-58
2022/01/03 03:17:32;;;;;;;9.03;3.65;;;;;;;8.99;70.90;97410.34;1734722;82;20985;-59
2022/01/03 03:20:02;;;;;;;8.15;3.70;;;;;;;8.98;70.75;97411.43;1738079;82;21162;-58
2022/01/03 03:22:30;;;;;;;5.83;3.30;;;;;;;8.93;70.87;97413.62;1737521;82;20953;-58
2022/01/03 03:25:12;;;;;;;4.75;3.55;;;;;;;8.92;70.90;97404.45;1738416;82;20989;-58
2022/01/03 03:27:46;;;;;;;5.30;3.45;;;;;;;8.91;70.86;97400.94;1737928;82;21005;-58
2022/01/03 03:30:15;;;;;;;4.72;2.70;;;;;;;8.88;70.99;97399.34;1737973;82;20997;-58
2022/01/03 03:32:41;;;;;;;6.58;3.12;;;;;;;8.89;70.81;97392.87;1720338;82;21139;-58
2022/01/03 03:35:08;;;;;;;8.38;4.42;;;;;;;8.91;71.18;97400.94;1703257;83;20953;-58
2022/01/03 03:37:34;;;;;;;6.85;3.58;;;;;;;8.94;71.27;97392.80;1713312;82;21400;-58
2022/01/03 03:40:00;;;;;;;7.12;2.92;;;;;;;8.97;71.13;97395.77;1713509;83;20848;-59
2022/01/03 03:42:26;;;;;;;7.47;3.85;;;;;;;8.99;71.06;97398.98;1728448;82;20973;-58
2022/01/03 03:44:52;;;;;;;6.17;3.85;;;;;;;9.01;70.98;97390.58;1737353;81;21166;-58
2022/01/03 03:47:18;;;;;;;11.48;6.60;;;;;;;9.02;70.71;97388.14;1715861;80;20930;-58
2022/01/03 03:49:44;;;;;;;5.85;3.50;;;;;;;9.01;70.67;97389.23;1774312;80;20850;-58
2022/01/03 03:52:10;;;;;;;7.25;3.70;;;;;;;9.05;70.34;97380.80;1739173;80;20944;-58
2022/01/03 03:54:36;;;;;;;5.22;2.98;;;;;;;9.07;70.20;97371.89;1738031;82;21101;-58
2022/01/03 03:57:03;;;;;;;11.90;5.05;;;;;;;9.07;70.31;97372.44;1738126;82;22387;-58
2022/01/03 03:59:29;;;;;;;6.22;3.85;;;;;;;9.08;70.29;97382.95;1738085;82;21044;-59
2022/01/03 04:01:55;;;;;;;3.77;2.60;;;;;;;9.07;70.47;97384.05;1720667;82;20898;-58
2022/01/03 04:04:21;;;;;;;5.65;3.05;;;;;;;9.08;70.72;97383.50;1713526;83;21522;-58
2022/01/03 04:06:47;;;;;;;5.95;3.25;;;;;;;9.10;70.85;97388.07;1713344;82;20907;-58
2022/01/03 04:09:13;;;;;;;5.15;3.37;;;;;;;9.12;70.74;97392.09;1713635;82;21538;-58
2022/01/03 04:11:39;;;;;;;4.55;2.77;;;;;;;9.13;70.70;97396.95;1713417;82;20991;-59
2022/01/03 04:14:05;;;;;;;7.30;2.95;;;;;;;9.15;70.37;97390.73;1713827;83;20868;-58
2022/01/03 04:16:32;;;;;;;5.97;3.25;;;;;;;9.13;70.36;97396.40;1726635;82;20889;-58
2022/01/03 04:18:58;;;;;;;5.28;3.25;;;;;;;9.17;69.80;97386.65;1738211;82;21048;-58
2022/01/03 04:21:25;;;;;;;5.92;2.77;;;;;;;9.13;70.05;97391.55;1730288;82;21648;-56
2022/01/03 04:23:51;;;;;;;7.30;2.83;;;;;;;9.11;69.59;97376.97;1737723;82;21005;-57
2022/01/03 04:26:17;;;;;;;7.30;2.50;;;;;;;9.12;69.80;97383.98;1733696;82;21004;-56
2022/01/03 04:28:44;;;;;;;6.20;4.15;;;;;;;9.16;69.71;97380.98;1737870;82;20984;-56
2022/01/03 04:31:10;;;;;;;5.50;3.87;;;;;;;9.16;69.72;97374.77;1735386;82;20981;-56
2022/01/03 04:33:36;;;;;;;7.25;3.12;;;;;;;9.25;69.22;97367.65;1713573;83;21432;-56
2022/01/03 04:36:04;;;;;;;11.65;9.48;;;;;;;9.23;69.52;97361.73;1714166;82;20986;-56
2022/01/03 04:38:29;;;;;;;7.12;4.40;;;;;;;9.21;69.50;97364.70;1737780;82;21454;-56
2022/01/03 04:40:55;;;;;;;8.10;4.67;;;;;;;9.21;69.25;97372.00;1737913;82;20960;-56
2022/01/03 04:43:21;;;;;;;4.80;3.70;;;;;;;9.20;69.44;97367.69;1738161;82;20965;-56
2022/01/03 04:45:49;;;;;;;5.50;3.22;;;;;;;9.19;69.40;97363.37;1725899;82;20982;-56
2022/01/03 04:48:15;;;;;;;6.53;2.80;;;;;;;9.18;69.21;97366.63;1724276;82;20981;-56
2022/01/03 04:50:41;;;;;;;5.45;3.27;;;;;;;9.19;69.32;97363.37;1709424;82;20982;-57
2022/01/03 04:53:07;;;;;;;8.73;3.30;;;;;;;9.19;69.44;97349.86;1735704;82;20946;-57
2022/01/03 04:55:33;;;;;;;6.42;4.15;;;;;;;9.17;69.54;97347.45;1738224;82;20878;-56
2022/01/03 04:57:59;;;;;;;5.03;2.80;;;;;;;9.17;69.76;97350.70;1738210;82;22291;-56
2022/01/03 05:00:25;;;;;;;4.70;3.27;;;;;;;9.16;69.59;97348.55;1737976;82;21016;-57
2022/01/03 05:02:51;;;;;;;4.62;3.45;;;;;;;9.17;69.92;97355.56;1738361;82;20937;-56
2022/01/03 05:05:16;;;;;;;7.55;3.40;;;;;;;9.18;69.85;97347.70;1738294;82;20877;-56
2022/01/03 05:07:42;;;;;;;3.37;2.50;;;;;;;9.20;69.95;97351.47;1738068;82;20866;-56
2022/01/03 05:10:08;;;;;;;22.82;15.25;;;;;;;9.20;69.48;97337.95;1738199;82;21543;-56
2022/01/03 05:12:34;;;;;;;7.47;4.00;;;;;;;9.21;69.61;97347.13;1738109;82;21027;-57
2022/01/03 05:15:00;;;;;;;5.95;3.12;;;;;;;9.23;69.75;97356.32;1738098;82;20882;-56
2022/01/03 05:17:29;;;;;;;2.92;1.70;;;;;;;9.20;69.85;97338.76;1738556;82;20946;-56
2022/01/03 05:19:54;;;;;;;4.22;2.80;;;;;;;9.17;69.80;97352.86;1738269;82;20997;-56
2022/01/03 05:22:20;;;;;;;5.90;3.20;;;;;;;9.13;70.04;97353.16;1729672;80;21454;-56
2022/01/03 05:24:46;;;;;;;4.42;2.45;;;;;;;9.10;70.30;97343.47;1738132;82;21009;-56
2022/01/03 05:27:12;;;;;;;4.78;2.72;;;;;;;9.07;70.43;97340.00;1728519;82;20959;-56
2022/01/03 05:29:38;;;;;;;5.35;2.60;;;;;;;9.06;70.78;97336.50;1708815;83;20968;-57
2022/01/03 05:32:05;;;;;;;3.85;2.42;;;;;;;9.08;71.02;97316.73;1705908;82;20875;-56
2022/01/03 05:34:30;;;;;;;8.35;4.62;;;;;;;9.02;71.14;97310.57;1700094;83;21848;-56
2022/01/03 05:36:56;;;;;;;12.80;5.60;;;;;;;9.02;71.14;97310.57;1707401;82;20839;-56
2022/01/03 05:39:22;;;;;;;6.58;3.00;;;;;;;8.98;71.17;97303.34;1713903;83;21597;-56
2022/01/03 05:41:48;;;;;;;8.13;4.12;;;;;;;9.04;71.36;97297.57;1728538;81;20854;-56
2022/01/03 05:44:14;;;;;;;7.62;3.65;;;;;;;8.97;71.67;97302.53;1738111;82;21543;-56
2022/01/03 05:46:40;;;;;;;8.05;3.42;;;;;;;8.90;72.52;97287.75;1738235;82;21470;-57
2022/01/03 05:49:11;;;;;;;8.88;4.20;;;;;;;8.91;72.62;97284.76;1714046;82;20889;-56
2022/01/03 05:51:37;;;;;;;8.48;3.65;;;;;;;8.92;72.58;97286.36;1715177;82;21001;-56
2022/01/03 05:54:04;;;;;;;8.23;3.75;;;;;;;8.88;72.93;97285.86;1737934;82;20970;-56
2022/01/03 05:56:31;;;;;;;8.43;3.02;;;;;;;8.82;73.44;97295.93;1737855;82;21462;-56
2022/01/03 05:58:57;;;;;;;4.20;2.70;;;;;;;8.78;73.73;97305.68;1738134;82;21572;-56
2022/01/03 06:01:24;;;;;;;5.87;2.72;;;;;;;8.70;73.74;97315.75;1737915;82;20898;-56
2022/01/03 06:03:59;;;;;;;5.92;3.52;;;;;;;8.62;75.02;97310.96;1726982;82;21028;-59
2022/01/03 06:06:30;;;;;;;4.30;2.70;;;;;;;8.63;74.79;97317.45;1716015;82;21008;-56
2022/01/03 06:08:45;;;;;;;5.45;2.92;;;;;;;8.57;75.41;97312.38;1714336;82;20965;-56
2022/01/03 06:11:11;;;;;;;9.28;4.15;;;;;;;8.57;75.83;97312.38;1724485;82;22238;-56
2022/01/03 06:13:37;;;;;;;4.80;2.50;;;;;;;8.54;76.01;97310.22;1715688;82;20862;-58
2022/01/03 06:16:04;;;;;;;7.17;3.75;;;;;;;8.47;76.22;97300.58;1722374;82;20877;-57
2022/01/03 06:18:30;;;;;;;6.78;2.83;;;;;;;8.45;76.58;97292.48;1691070;84;20992;-57
2022/01/03 06:20:56;;;;;;;7.42;4.00;;;;;;;8.47;76.83;97286.27;1706021;82;20972;-57
2022/01/03 06:23:21;;;;;;;12.18;5.62;;;;;;;8.43;76.72;97278.46;1717994;82;21535;-57
2022/01/03 06:25:47;;;;;;;6.87;2.90;;;;;;;8.42;77.08;97286.30;1716805;82;21012;-57
2022/01/03 06:28:13;;;;;;;5.08;3.27;;;;;;;8.44;77.40;97285.47;1710981;82;20881;-58
2022/01/03 06:30:41;;;;;;;6.47;3.58;;;;;;;8.44;77.41;97283.58;1705326;82;20888;-57
2022/01/03 06:33:08;;;;;;;5.13;2.30;;;;;;;8.45;77.11;97292.48;1711591;82;21467;-57
2022/01/03 06:35:34;;;;;;;7.90;3.77;;;;;;;8.50;77.18;97306.49;1737420;82;21438;-57
2022/01/03 06:38:00;;;;;;;7.45;3.58;;;;;;;8.40;77.87;97303.34;1734461;82;20846;-58
2022/01/03 06:40:26;;;;;;;4.75;2.45;;;;;;;8.35;77.62;97308.22;1732699;82;20917;-57
2022/01/03 06:42:53;;;;;;;5.33;3.22;;;;;;;8.35;77.99;97304.72;1716934;82;20873;-57
2022/01/03 06:45:19;;;;;;;4.90;2.45;;;;;;;8.30;78.46;97322.29;1707781;82;20990;-57
2022/01/03 06:47:44;;;;;;;6.53;3.87;;;;;;;8.25;79.05;97340.66;1726837;80;21522;-57
2022/01/03 06:50:10;;;;;;;13.40;7.20;;;;;;;8.20;79.40;97354.18;1769193;80;20862;-58
2022/01/03 06:52:37;;;;;;;6.30;3.55;;;;;;;8.18;80.36;97348.27;1689332;84;20950;-58
2022/01/03 06:55:05;;;;;;;4.72;3.67;;;;;;;8.11;81.18;97339.67;1730227;82;21015;-58
2022/01/03 06:57:31;;;;;;;8.25;3.42;;;;;;;8.00;81.92;97332.19;1708129;82;21396;-57
2022/01/03 06:59:57;;;;;;;6.08;3.10;;;;;;;7.90;82.33;97322.81;1728717;82;21539;-57
2022/01/03 07:02:23;;;;;;;7.95;3.75;;;;;;;7.86;82.08;97319.05;1708821;82;21409;-57
2022/01/03 07:04:49;;;;;;;8.25;3.62;;;;;;;7.81;82.95;97315.86;1710091;82;20874;-58
2022/01/03 07:07:15;;;;;;;8.45;4.20;;;;;;;7.81;84.11;97316.40;1714064;82;21533;-57
2022/01/03 07:09:41;;;;;;;6.47;3.52;;;;;;;7.80;83.90;97320.19;1728385;82;20968;-58
2022/01/03 07:12:08;;;;;;;6.78;3.70;;;;;;;7.81;83.61;97325.84;1732539;82;21529;-57
2022/01/03 07:19:51;;;;;;;5.28;3.35;;;;;;;7.88;83.10;97327.15;1713335;83;21456;-58
2022/01/03 07:22:17;;;;;;;5.97;3.72;;;;;;;7.91;83.70;97324.42;1713272;82;20990;-58
2022/01/03 07:24:43;;;;;;;6.62;4.28;;;;;;;7.94;83.55;97329.25;1735495;82;21652;-58
2022/01/03 07:27:11;;;;;;;8.28;3.65;;;;;;;7.95;83.96;97335.45;1737824;82;20862;-57
2022/01/03 07:29:36;;;;;;;12.18;3.55;;;;;;;7.95;83.65;97336.29;1727476;82;21060;-58
2022/01/03 07:32:04;;;;;;;9.38;4.22;;;;;;;7.93;83.59;97336.55;1716377;82;21509;-58
2022/01/03 07:34:30;;;;;;;10.53;5.30;;;;;;;7.95;83.32;97342.20;1710207;83;21473;-57
2022/01/03 07:36:55;;;;;;;5.83;3.55;;;;;;;7.98;83.39;97340.31;1724741;82;21047;-58
2022/01/03 07:39:21;;;;;;;6.70;3.70;;;;;;;7.99;83.96;97342.72;1735598;82;22495;-57
2022/01/03 07:41:47;;;;;;;7.65;3.47;;;;;;;8.02;83.91;97348.09;1711536;82;21016;-57
2022/01/03 07:44:18;;;;;;;9.85;4.60;;;;;;;8.03;84.27;97347.00;1729637;82;20842;-57
2022/01/03 07:46:41;;;;;;;7.55;3.87;;;;;;;8.04;84.13;97348.10;1715758;82;21001;-57
2022/01/03 07:49:07;;;;;;;10.53;4.33;;;;;;;8.09;84.40;97358.84;1717704;82;21411;-57
2022/01/03 07:51:33;;;;;;;10.38;4.90;;;;;;;8.03;84.74;97357.28;1727362;82;20881;-57
2022/01/03 07:53:59;;;;;;;7.50;3.60;;;;;;;8.00;84.63;97362.41;1725187;82;21555;-57
2022/01/03 07:56:25;;;;;;;8.38;4.10;;;;;;;7.99;84.72;97368.35;1712591;82;20993;-57
2022/01/03 07:58:51;;;;;;;5.55;3.60;;;;;;;8.01;84.94;97374.27;1719391;82;20985;-57
2022/01/03 08:01:17;;;;;;;6.67;3.55;;;;;;;8.03;84.90;97373.47;1719651;82;21413;-57
2022/01/03 08:03:43;;;;;;;6.85;3.80;;;;;;;8.06;84.78;97385.05;1714410;82;20854;-57
2022/01/03 08:06:09;;;;;;;8.73;4.50;;;;;;;8.17;85.04;97381.73;1713365;82;21622;-57
2022/01/03 08:08:36;;;;;;;10.53;5.62;;;;;;;8.16;84.83;97379.58;1719474;81;20989;-57
2022/01/03 08:11:02;;;;;;;13.30;4.87;;;;;;;8.17;85.04;97379.84;1710492;82;21066;-57
2022/01/03 08:13:28;;;;;;;10.75;5.20;;;;;;;8.19;84.80;97381.71;1710986;82;22439;-57
2022/01/03 08:15:54;;;;;;;6.42;4.95;;;;;;;8.19;84.79;97380.37;1728249;82;20901;-57
2022/01/03 08:18:20;;;;;;;10.93;5.12;;;;;;;8.15;84.93;97386.07;1720601;82;20948;-57
2022/01/03 08:20:46;;;;;;;7.58;3.92;;;;;;;8.15;84.96;97389.31;1718582;82;20873;-57
2022/01/03 08:23:12;;;;;;;10.10;5.50;;;;;;;8.18;85.11;97392.80;1713648;82;20914;-57
2022/01/03 08:25:38;;;;;;;9.28;4.85;;;;;;;8.19;85.16;97387.11;1710431;82;21365;-57
2022/01/03 08:28:07;;;;;;;9.05;3.87;;;;;;;8.19;85.22;97386.31;1708983;82;21665;-58
2022/01/03 08:30:33;;;;;;;7.90;3.77;;;;;;;8.18;85.22;97394.14;1665685;85;21041;-57
2022/01/03 08:33:00;;;;;;;7.67;4.17;;;;;;;8.22;84.93;97406.02;1714155;82;21012;-57
2022/01/03 08:35:26;;;;;;;8.20;3.67;;;;;;;8.14;84.92;97406.05;1707582;82;21075;-57
2022/01/03 08:37:53;;;;;;;6.75;3.45;;;;;;;8.13;85.11;97407.69;1701301;82;21117;-57
2022/01/03 08:40:18;;;;;;;5.45;3.47;;;;;;;8.15;85.13;97407.66;1718016;81;21477;-58
2022/01/03 08:42:45;;;;;;;5.03;3.42;;;;;;;8.20;84.99;97415.74;1712898;82;20943;-57
2022/01/03 08:45:11;;;;;;;5.03;2.92;;;;;;;8.26;84.76;97406.25;1711009;82;21079;-57
2022/01/03 08:47:37;;;;;;;5.35;3.05;;;;;;;8.32;84.84;97406.48;1718861;80;20967;-57
2022/01/03 08:50:04;;;;;;;9.05;4.90;;;;;;;8.33;84.96;97408.91;1726159;80;21500;-57
2022/01/03 08:52:30;;;;;;;5.85;3.22;;;;;;;8.33;84.75;97415.66;1719777;82;21453;-57
2022/01/03 08:54:56;;;;;;;11.35;7.28;;;;;;;8.36;84.42;97417.81;1718836;82;21040;-57
2022/01/03 08:57:22;;;;;;;9.25;4.42;;;;;;;8.27;84.53;97422.16;1724604;82;20916;-57
2022/01/03 08:59:49;;;;;;;8.00;3.77;;;;;;;8.25;84.62;97414.89;1721158;82;20905;-58
2022/01/03 09:02:16;;;;;;;7.70;4.47;;;;;;;8.25;84.46;97418.94;1714999;82;21945;-58
2022/01/03 09:04:43;;;;;;;7.47;3.77;;;;;;;8.29;84.61;97415.96;1712934;82;21001;-58
2022/01/03 09:07:09;;;;;;;6.85;3.90;;;;;;;8.35;84.36;97415.39;1720454;82;20977;-57
2022/01/03 09:09:35;;;;;;;8.50;5.78;;;;;;;8.43;84.15;97418.86;1712674;82;21068;-57
2022/01/03 09:12:02;;;;;;;23.45;13.40;;;;;;;8.49;83.76;97424.50;1710568;82;20952;-57
2022/01/03 09:14:28;;;;;;;15.80;6.92;;;;;;;8.57;82.92;97425.80;1711668;82;21557;-57
2022/01/03 09:16:54;;;;;;;10.80;5.15;;;;;;;8.57;82.92;97425.80;1726776;80;20971;-57
2022/01/03 09:19:20;;;;;;;10.63;6.58;;;;;;;8.59;82.92;97424.97;1732599;82;20909;-57
2022/01/03 09:21:46;;;;;;;9.08;5.42;;;;;;;8.62;82.80;97424.39;1707405;82;20897;-57
2022/01/03 09:24:26;;;;;;;10.90;7.05;;;;;;;8.67;82.56;97418.97;1726590;82;20853;-57
2022/01/03 09:29:31;;;;;;;19.65;11.80;;;;;;;8.76;81.46;97403.77;1716377;82;21020;-57
2022/01/03 09:31:57;;;;;;;6.15;3.80;;;;;;;8.76;81.46;97403.77;1730052;82;20968;-57
2022/01/03 09:34:23;;;;;;;15.80;8.08;;;;;;;8.83;81.37;97417.76;1718560;82;20945;-58
2022/01/03 09:36:48;;;;;;;33.02;18.73;;;;;;;8.86;81.14;97398.81;1713008;82;20872;-57
2022/01/03 09:39:14;;;;;;;13.18;7.28;;;;;;;8.86;80.82;97398.81;1713440;83;21872;-57
2022/01/03 09:41:56;;;;;;;10.65;5.55;;;;;;;8.86;81.07;97409.08;1719783;82;20937;-58
2022/01/03 09:44:27;;;;;;;13.53;8.58;;;;;;;8.91;81.02;97398.78;1725920;82;21017;-58
2022/01/03 09:46:53;;;;;;;8.38;5.60;;;;;;;8.96;81.12;97405.48;1699105;82;21049;-58
2022/01/03 09:49:19;;;;;;;14.03;9.23;;;;;;;9.02;81.15;97402.45;1718078;80;21389;-58
2022/01/03 09:51:45;;;;;;;8.70;5.60;;;;;;;9.02;81.16;97399.75;1718957;82;21057;-58
2022/01/03 09:54:14;;;;;;;10.63;5.83;;;;;;;9.05;80.95;97397.02;1729008;82;20994;-58
2022/01/03 09:56:40;;;;;;;;;;;;;;;9.12;80.57;97396.14;1720941;82;21523;-58
2022/01/03 09:59:07;;;;;;;23.62;12.33;;;;;;;9.18;80.06;97387.45;1729096;82;20245;-58
2022/01/03 10:01:33;;;;;;;8.68;3.65;;;;;;;9.18;80.06;97387.45;1723391;82;21482;-58
2022/01/03 10:04:00;;;;;;;10.80;5.87;;;;;;;9.22;79.81;97385.77;1693809;82;21450;-59
2022/01/03 10:06:26;;;;;;;6.65;3.77;;;;;;;9.23;79.20;97375.25;1710638;82;21044;-58
2022/01/03 10:08:53;;;;;;;7.05;6.28;;;;;;;9.33;78.85;97382.70;1711617;82;21031;-58
2022/01/03 10:11:20;;;;;;;7.80;5.03;;;;;;;9.33;78.71;97368.38;1724114;82;21029;-58
2022/01/03 10:13:46;;;;;;;12.40;5.17;;;;;;;9.37;78.25;97374.00;1716413;82;21455;-58
2022/01/03 10:16:12;;;;;;;10.35;7.50;;;;;;;9.37;78.25;97374.00;1712064;82;21529;-58
2022/01/03 10:18:38;;;;;;;6.50;4.47;;;;;;;9.48;78.27;97383.60;1669751;85;20993;-58
2022/01/03 10:21:07;;;;;;;21.75;13.83;;;;;;;9.57;77.89;97376.47;1720655;82;20881;-58
2022/01/03 10:23:32;;;;;;;;;;;;;;;9.57;77.08;97379.17;1713338;82;21004;-58
2022/01/03 10:26:16;;;;;;;5.10;2.60;;;;;;;9.60;77.48;97372.66;1724501;82;20195;-58
2022/01/03 10:28:42;;;;;;;5.55;2.60;;;;;;;9.68;76.82;97381.23;1722709;82;21357;-58
2022/01/03 10:31:17;;;;;;;5.50;2.95;;;;;;;9.69;76.56;97376.88;1698136;82;20944;-58
2022/01/03 10:33:43;;;;;;;5.40;3.75;;;;;;;9.68;76.36;97379.33;1716871;82;21020;-58
2022/01/03 10:36:28;;;;;;;7.15;2.80;;;;;;;9.65;75.88;97373.13;1723835;82;20973;-58
2022/01/03 10:38:54;;;;;;;15.32;12.40;;;;;;;9.65;75.88;97373.13;1693370;83;21012;-58
2022/01/03 10:41:22;;;;;;;12.00;7.00;;;;;;;9.67;75.71;97380.42;1690729;82;21523;-58
2022/01/03 10:43:57;;;;;;;4.47;2.83;;;;;;;9.70;75.54;97373.63;1711970;82;21007;-58
2022/01/03 10:46:27;;;;;;;8.53;3.08;;;;;;;9.70;75.66;97373.08;1738501;80;21020;-58
2022/01/03 10:49:10;;;;;;;6.22;2.58;;;;;;;9.73;75.37;97368.42;1715156;82;21555;-58
2022/01/03 10:51:36;;;;;;;5.00;1.87;;;;;;;9.81;74.61;97377.80;1707226;82;21034;-58
2022/01/03 10:54:02;;;;;;;4.83;2.42;;;;;;;9.73;73.89;97371.67;1726479;82;21636;-57
2022/01/03 10:56:41;;;;;;;10.85;4.90;;;;;;;9.74;74.03;97361.95;1707382;82;21015;-57
2022/01/03 10:59:18;;;;;;;6.83;3.10;;;;;;;9.70;74.26;97364.16;1710946;83;21016;-58
2022/01/03 11:01:53;;;;;;;8.75;4.70;;;;;;;9.68;74.22;97375.27;1717421;82;21037;-58
2022/01/03 11:04:48;;;;;;;6.45;2.87;;;;;;;9.58;74.37;97374.84;1728091;82;20968;-58
2022/01/03 11:13:14;;;;;;;5.50;3.30;;;;;;;9.50;73.75;97359.25;1727093;82;21076;-58
2022/01/03 11:15:55;;;;;;;4.17;2.55;;;;;;;9.56;73.93;97353.22;1737915;80;21662;-58
2022/01/03 11:18:27;;;;;;;16.37;9.25;;;;;;;9.56;73.93;97353.22;1713671;82;21046;-58
2022/01/03 11:21:11;;;;;;;30.43;13.68;;;;;;;9.52;73.27;97357.61;1711069;82;21611;-58
2022/01/03 11:23:38;;;;;;;16.50;8.55;;;;;;;9.45;73.54;97352.54;1717816;82;21013;-58
2022/01/03 11:26:10;;;;;;;38.05;19.05;;;;;;;9.40;73.68;97352.62;1715778;82;20987;-58
2022/01/03 11:28:36;;;;;;;23.57;11.43;;;;;;;9.33;73.80;97339.98;1712242;82;21072;-58
2022/01/03 11:31:03;;;;;;;22.00;11.10;;;;;;;9.34;73.99;97341.59;1644289;85;21036;-58
2022/01/03 11:33:29;;;;;;;23.55;11.70;;;;;;;9.35;73.80;97346.45;1708471;82;21068;-58
2022/01/03 11:35:55;;;;;;;15.48;6.08;;;;;;;9.35;73.88;97345.91;1715144;82;21044;-58
2022/01/03 11:38:22;;;;;;;6.85;3.62;;;;;;;9.34;73.68;97353.76;1723669;82;20969;-58
2022/01/03 11:40:48;;;;;;;63.60;7.28;;;;;;;9.34;74.20;97363.22;1716038;82;21067;-58
2022/01/03 11:43:15;;;;;;;19.90;2.40;;;;;;;9.05;72.33;97397.82;1652982;85;20977;-58
2022/01/03 11:45:40;;;;;;;2.85;1.70;;;;;;;7.71;76.79;97410.84;1717466;80;21108;-58
2022/01/03 11:48:12;;;;;;;6.00;3.47;;;;;;;7.12;81.34;97406.16;1721278;82;20901;-58
2022/01/03 11:50:38;;;;;;;7.37;2.80;;;;;;;6.78;85.05;97394.06;1716199;82;20986;-58
2022/01/03 11:53:06;;;;;;;10.28;5.67;;;;;;;6.62;86.29;97414.52;1713538;82;20963;-57
2022/01/03 11:55:34;;;;;;;8.40;3.55;;;;;;;6.50;87.66;97399.45;1717316;82;21081;-57
2022/01/03 11:58:12;;;;;;;5.87;2.85;;;;;;;6.48;87.79;97403.47;1700014;82;21456;-57
2022/01/03 12:06:04;;;;;;;20.00;6.78;;;;;;;6.32;89.75;97467.75;1667173;85;21033;-58